createdAt,value
2023-02-28T00:02:08.671Z,8.00
2023-02-28T00:05:18.071Z,8.20
2023-02-28T00:08:21.782Z,8.23
2023-02-28T00:11:25.586Z,6.97
2023-02-28T00:14:32.933Z,7.70
2023-02-28T00:17:36.803Z,7.43
2023-02-28T00:20:41.843Z,7.80
2023-02-28T00:23:46.150Z,8.75
2023-02-28T00:26:49.909Z,8.57
2023-02-28T00:29:54.947Z,7.63
2023-02-28T00:32:58.685Z,6.53
2023-02-28T00:36:13.408Z,6.50
2023-02-28T00:39:17.966Z,6.82
2023-02-28T00:42:21.964Z,6.35
2023-02-28T00:48:29.425Z,6.57
2023-02-28T00:51:35.071Z,6.60
2023-02-28T00:54:38.840Z,6.43
2023-02-28T00:57:43.482Z,5.85
2023-02-28T01:00:50.844Z,6.63
2023-02-28T01:03:54.479Z,5.97
2023-02-28T01:06:59.827Z,5.20
2023-02-28T01:10:03.715Z,5.80
2023-02-28T01:13:07.826Z,6.05
2023-02-28T01:19:16.179Z,6.38
2023-02-28T01:22:21.105Z,6.88
2023-02-28T01:25:25.262Z,6.72
2023-02-28T01:28:31.304Z,7.00
2023-02-28T01:31:35.687Z,7.40
2023-02-28T01:34:39.541Z,8.27
2023-02-28T01:37:45.401Z,7.88
2023-02-28T01:40:49.605Z,7.95
2023-02-28T01:47:03.882Z,7.38
2023-02-28T01:50:17.102Z,6.70
2023-02-28T01:53:41.113Z,7.45
2023-02-28T01:56:56.336Z,6.88
2023-02-28T02:00:04.383Z,6.80
2023-02-28T02:03:13.003Z,7.65
2023-02-28T02:06:17.103Z,6.90
2023-02-28T02:13:21.549Z,6.75
2023-02-28T02:16:40.156Z,6.35
2023-02-28T02:20:37.572Z,6.53
2023-02-28T02:24:37.182Z,6.72
2023-02-28T02:28:39.773Z,7.00
2023-02-28T02:32:31.184Z,6.25
2023-02-28T02:35:51.335Z,6.32
2023-02-28T02:39:02.572Z,6.13
2023-02-28T02:42:17.850Z,6.55
2023-02-28T02:45:28.322Z,6.28
2023-02-28T02:48:37.431Z,5.95
2023-02-28T02:51:44.471Z,6.25
2023-02-28T02:54:51.607Z,6.30
2023-02-28T02:58:01.664Z,6.28
2023-02-28T03:01:07.458Z,5.93
2023-02-28T03:04:24.785Z,5.38
2023-02-28T03:07:30.085Z,5.55
2023-02-28T03:10:44.427Z,4.97
2023-02-28T03:14:50.700Z,5.45
2023-02-28T03:18:10.287Z,5.22
2023-02-28T03:21:26.750Z,5.60
2023-02-28T03:24:49.578Z,5.18
2023-02-28T03:28:06.185Z,5.80
2023-02-28T03:31:21.383Z,5.32
2023-02-28T03:34:32.462Z,5.50
2023-02-28T03:37:42.069Z,5.38
2023-02-28T03:40:55.193Z,5.13
2023-02-28T03:44:07.190Z,5.13
2023-02-28T03:47:14.915Z,4.82
2023-02-28T03:50:26.097Z,5.40
2023-02-28T03:53:35.235Z,4.88
2023-02-28T03:56:47.737Z,4.80
2023-02-28T03:59:58.733Z,5.45
2023-02-28T04:03:02.609Z,4.50
2023-02-28T04:06:10.451Z,5.50
2023-02-28T04:09:17.201Z,5.45
2023-02-28T04:12:24.311Z,5.03
2023-02-28T04:15:29.202Z,5.53
2023-02-28T04:18:32.956Z,5.30
2023-02-28T04:21:40.769Z,6.28
2023-02-28T04:24:45.584Z,6.43
2023-02-28T04:27:51.512Z,6.47
2023-02-28T04:30:59.298Z,6.25
2023-02-28T04:34:02.758Z,5.43
2023-02-28T04:37:14.234Z,6.05
2023-02-28T04:40:19.564Z,6.43
2023-02-28T04:43:25.784Z,6.82
2023-02-28T04:46:29.428Z,6.40
2023-02-28T04:49:33.570Z,6.25
2023-02-28T04:52:37.367Z,6.20
2023-02-28T04:55:42.001Z,6.75
2023-02-28T04:58:47.738Z,6.90
2023-02-28T05:01:52.731Z,6.80
2023-02-28T05:04:57.620Z,6.57
2023-02-28T05:08:01.226Z,6.70
2023-02-28T05:11:06.332Z,6.40
2023-02-28T05:14:15.641Z,7.00
2023-02-28T05:17:19.483Z,6.75
2023-02-28T05:20:23.173Z,7.72
2023-02-28T05:23:26.812Z,7.43
2023-02-28T05:26:31.662Z,7.55
2023-02-28T05:29:44.170Z,8.45
2023-02-28T05:32:53.614Z,8.93
2023-02-28T05:35:59.878Z,8.55
2023-02-28T05:39:04.574Z,8.88
2023-02-28T05:42:08.626Z,7.70
2023-02-28T05:45:15.817Z,8.45
2023-02-28T05:48:19.589Z,8.02
2023-02-28T05:51:23.795Z,7.38
2023-02-28T05:54:27.826Z,8.65
2023-02-28T06:00:37.168Z,8.73
2023-02-28T06:03:42.146Z,10.75
2023-02-28T06:06:45.836Z,9.05
2023-02-28T06:09:49.357Z,8.98
2023-02-28T06:12:54.457Z,10.32
2023-02-28T06:16:03.105Z,11.00
2023-02-28T06:19:07.813Z,10.35
2023-02-28T06:22:12.326Z,9.85
2023-02-28T06:25:16.645Z,10.50
2023-02-28T06:28:20.474Z,11.60
2023-02-28T06:31:27.158Z,9.20
2023-02-28T06:34:31.159Z,10.43
2023-02-28T06:40:39.185Z,10.25
2023-02-28T06:43:45.367Z,10.63
2023-02-28T06:46:51.788Z,10.43
2023-02-28T06:49:55.549Z,10.20
2023-02-28T06:53:06.717Z,11.07
2023-02-28T06:56:13.593Z,10.20
2023-02-28T06:59:17.432Z,10.77
2023-02-28T07:05:26.265Z,10.40
2023-02-28T07:08:32.646Z,10.68
2023-02-28T07:11:36.978Z,11.02
2023-02-28T07:14:40.860Z,10.55
2023-02-28T07:17:46.192Z,10.38
2023-02-28T07:20:49.786Z,11.40
2023-02-28T07:23:53.683Z,11.35
2023-02-28T07:26:57.942Z,11.70
2023-02-28T07:30:02.771Z,13.07
2023-02-28T07:33:07.736Z,13.90
2023-02-28T07:36:16.338Z,13.65
2023-02-28T07:39:20.836Z,16.05
2023-02-28T07:42:23.928Z,12.95
2023-02-28T07:45:27.633Z,11.57
2023-02-28T07:48:32.669Z,11.63
2023-02-28T07:51:36.493Z,10.73
2023-02-28T07:54:41.219Z,11.10
2023-02-28T07:57:45.898Z,9.80
2023-02-28T08:00:49.812Z,10.93
2023-02-28T08:03:56.045Z,9.13
2023-02-28T08:06:59.915Z,10.70
2023-02-28T08:10:06.629Z,10.65
2023-02-28T08:13:11.038Z,9.63
2023-02-28T08:16:22.924Z,9.60
2023-02-28T08:19:29.085Z,9.63
2023-02-28T08:22:32.582Z,8.68
2023-02-28T08:25:37.219Z,8.07
2023-02-28T08:28:41.433Z,7.50
2023-02-28T08:34:54.692Z,7.95
2023-02-28T08:37:59.441Z,7.10
2023-02-28T08:41:06.941Z,7.18
2023-02-28T08:44:11.455Z,6.80
2023-02-28T08:47:14.837Z,7.05
2023-02-28T08:50:20.583Z,8.00
2023-02-28T08:53:24.116Z,8.05
2023-02-28T08:56:28.226Z,7.60
2023-02-28T09:02:35.939Z,6.70
2023-02-28T09:05:40.960Z,6.68
2023-02-28T09:08:44.874Z,7.18
2023-02-28T09:11:48.286Z,6.47
2023-02-28T09:14:55.324Z,6.17
2023-02-28T09:17:59.980Z,5.47
2023-02-28T09:21:07.939Z,6.68
2023-02-28T09:24:12.915Z,5.65
2023-02-28T09:27:21.976Z,5.65
2023-02-28T09:30:29.301Z,5.25
2023-02-28T09:33:33.089Z,4.72
2023-02-28T09:36:45.167Z,4.43
2023-02-28T09:39:49.601Z,3.55
2023-02-28T09:42:59.349Z,3.55
2023-02-28T09:46:14.912Z,3.75
2023-02-28T09:49:25.239Z,4.20
2023-02-28T09:52:34.832Z,3.80
2023-02-28T09:55:48.969Z,3.45
2023-02-28T09:58:57.808Z,3.40
2023-02-28T10:02:15.213Z,3.58
2023-02-28T10:05:22.764Z,4.30
2023-02-28T10:08:34.656Z,3.95
2023-02-28T10:11:41.209Z,4.25
2023-02-28T10:15:05.370Z,4.35
2023-02-28T10:18:23.312Z,3.40
2023-02-28T10:21:36.051Z,4.28
2023-02-28T10:24:46.293Z,3.53
2023-02-28T10:27:51.423Z,3.42
2023-02-28T10:30:57.158Z,3.83
2023-02-28T10:34:02.533Z,4.18
2023-02-28T10:37:29.789Z,3.33
2023-02-28T10:40:38.002Z,1.60
2023-02-28T10:43:46.141Z,1.58
2023-02-28T10:46:51.069Z,1.70
2023-02-28T10:49:54.970Z,2.50
2023-02-28T10:53:28.073Z,2.58
2023-02-28T10:56:37.167Z,2.33
2023-02-28T10:59:41.107Z,1.60
2023-02-28T11:02:45.919Z,1.30
2023-02-28T11:05:57.035Z,1.63
2023-02-28T11:09:05.765Z,2.03
2023-02-28T11:12:27.466Z,1.70
2023-02-28T11:15:34.273Z,1.90
2023-02-28T11:18:45.305Z,1.80
2023-02-28T11:21:58.414Z,2.03
2023-02-28T11:25:09.246Z,2.22
2023-02-28T11:28:32.227Z,1.95
2023-02-28T11:31:37.056Z,2.10
2023-02-28T11:34:42.969Z,4.45
2023-02-28T11:37:47.486Z,2.25
2023-02-28T11:41:09.832Z,2.08
2023-02-28T11:44:35.991Z,1.60
2023-02-28T11:47:49.710Z,1.70
2023-02-28T11:51:09.089Z,1.75
2023-02-28T11:54:38.109Z,2.00
2023-02-28T11:58:08.020Z,1.88
2023-02-28T12:01:35.916Z,1.85
2023-02-28T12:04:57.814Z,1.58
2023-02-28T12:08:23.737Z,2.15
2023-02-28T12:11:54.090Z,2.08
2023-02-28T12:15:42.947Z,2.45
2023-02-28T12:19:32.105Z,2.42
2023-02-28T12:22:45.264Z,2.63
2023-02-28T12:26:05.225Z,2.67
2023-02-28T12:29:20.822Z,3.10
2023-02-28T12:32:33.340Z,2.88
2023-02-28T12:35:49.824Z,2.67
2023-02-28T12:39:01.211Z,2.75
2023-02-28T12:42:13.941Z,2.80
2023-02-28T12:45:23.340Z,2.67
2023-02-28T12:48:39.794Z,2.78
2023-02-28T12:51:46.887Z,2.47
2023-02-28T12:54:59.481Z,2.53
2023-02-28T12:58:17.818Z,2.60
2023-02-28T13:02:03.237Z,2.40
2023-02-28T13:05:48.930Z,2.20
2023-02-28T13:09:13.445Z,2.60
2023-02-28T13:12:26.541Z,2.63
2023-02-28T13:15:36.493Z,2.50
2023-02-28T13:19:13.463Z,2.45
2023-02-28T13:22:38.906Z,2.15
2023-02-28T13:25:56.112Z,2.08
2023-02-28T13:29:02.969Z,2.00
2023-02-28T13:32:45.287Z,1.48
2023-02-28T13:35:49.970Z,1.88
2023-02-28T13:38:56.509Z,1.95
2023-02-28T13:42:38.717Z,2.08
2023-02-28T13:46:16.034Z,3.20
2023-02-28T13:49:29.349Z,2.33
2023-02-28T13:52:48.515Z,2.60
2023-02-28T13:56:05.720Z,2.65
2023-02-28T13:59:25.603Z,2.28
2023-02-28T14:03:01.813Z,2.47
2023-02-28T14:06:29.280Z,1.95
2023-02-28T14:09:38.790Z,2.80
2023-02-28T14:13:03.171Z,2.40
2023-02-28T14:16:11.090Z,2.55
2023-02-28T14:19:24.309Z,2.80
2023-02-28T14:22:55.936Z,2.72
2023-02-28T14:26:15.691Z,2.17
2023-02-28T14:30:08.080Z,2.13
2023-02-28T14:33:28.582Z,2.50
2023-02-28T14:36:42.743Z,2.72
2023-02-28T14:39:48.199Z,2.53
2023-02-28T14:43:01.736Z,2.30
2023-02-28T14:46:09.252Z,2.50
2023-02-28T14:49:21.239Z,2.67
2023-02-28T14:52:31.199Z,2.75
2023-02-28T14:55:38.897Z,3.13
2023-02-28T14:58:42.402Z,3.40
2023-02-28T15:01:46.749Z,3.40
2023-02-28T15:05:02.694Z,2.80
2023-02-28T15:08:16.635Z,3.33
2023-02-28T15:11:23.718Z,2.75
2023-02-28T15:14:31.757Z,3.30
2023-02-28T15:17:37.079Z,3.20
2023-02-28T15:20:44.988Z,3.28
2023-02-28T15:23:55.850Z,2.97
2023-02-28T15:27:07.216Z,2.88
2023-02-28T15:30:25.331Z,3.13
2023-02-28T15:33:32.972Z,3.40
2023-02-28T15:36:44.208Z,3.35
2023-02-28T15:39:53.814Z,3.30
2023-02-28T15:43:11.154Z,3.08
2023-02-28T15:46:18.637Z,3.10
2023-02-28T15:49:25.009Z,3.95
2023-02-28T15:52:41.897Z,2.85
2023-02-28T15:55:59.563Z,3.45
2023-02-28T15:59:13.708Z,2.92
2023-02-28T16:02:23.510Z,3.08
2023-02-28T16:05:32.725Z,3.00
2023-02-28T16:08:37.611Z,3.20
2023-02-28T16:11:49.258Z,3.05
2023-02-28T16:14:58.240Z,3.28
2023-02-28T16:18:33.356Z,3.45
2023-02-28T16:21:40.364Z,3.03
2023-02-28T16:24:46.177Z,3.13
2023-02-28T16:27:54.785Z,3.58
2023-02-28T16:31:00.550Z,3.65
2023-02-28T16:34:14.678Z,3.80
2023-02-28T16:37:20.923Z,3.10
2023-02-28T16:40:32.193Z,3.42
2023-02-28T16:43:38.687Z,3.47
2023-02-28T16:46:44.803Z,5.38
2023-02-28T16:49:50.043Z,4.72
2023-02-28T16:52:55.779Z,5.65
2023-02-28T16:55:59.538Z,4.43
2023-02-28T16:59:13.692Z,4.10
2023-02-28T17:02:21.899Z,4.07
2023-02-28T17:05:28.084Z,3.75
2023-02-28T17:08:48.474Z,3.72
2023-02-28T17:11:54.089Z,2.97
2023-02-28T17:14:59.842Z,5.03
2023-02-28T17:18:05.708Z,3.90
2023-02-28T17:21:17.404Z,3.95
2023-02-28T17:24:30.194Z,4.85
2023-02-28T17:27:36.995Z,3.92
2023-02-28T17:30:48.348Z,5.55
2023-02-28T17:33:58.416Z,5.55
2023-02-28T17:37:03.860Z,6.43
2023-02-28T17:40:16.540Z,5.57
2023-02-28T17:43:21.224Z,5.70
2023-02-28T17:46:29.952Z,5.38
2023-02-28T17:49:34.290Z,5.63
2023-02-28T17:52:38.167Z,5.18
2023-02-28T17:55:42.224Z,5.38
2023-02-28T18:01:53.838Z,5.90
2023-02-28T18:04:59.074Z,5.72
2023-02-28T18:08:03.081Z,6.28
2023-02-28T18:14:15.405Z,4.43
2023-02-28T18:17:21.649Z,4.63
2023-02-28T18:20:25.042Z,4.88
2023-02-28T18:23:32.388Z,4.40
2023-02-28T18:26:38.122Z,5.07
2023-02-28T18:29:42.357Z,5.93
2023-02-28T18:32:47.544Z,7.53
2023-02-28T18:35:58.369Z,11.30
2023-02-28T18:39:01.876Z,11.25
2023-02-28T18:42:06.051Z,10.25
2023-02-28T18:45:12.862Z,8.10
2023-02-28T18:48:19.735Z,5.97
2023-02-28T18:51:27.113Z,6.32
2023-02-28T18:54:58.008Z,5.50
2023-02-28T18:58:06.574Z,6.43
2023-02-28T19:01:19.908Z,5.35
2023-02-28T19:04:37.340Z,5.60
2023-02-28T19:07:41.434Z,5.70
2023-02-28T19:14:34.679Z,4.68
2023-02-28T19:18:14.709Z,4.70
2023-02-28T19:21:32.655Z,6.25
2023-02-28T19:24:40.731Z,5.50
2023-02-28T19:27:44.390Z,5.45
2023-02-28T19:30:51.733Z,7.85
2023-02-28T19:33:59.060Z,6.72
2023-02-28T19:37:04.804Z,6.78
2023-02-28T19:40:14.829Z,6.50
2023-02-28T19:43:32.580Z,6.90
2023-02-28T19:46:41.011Z,6.53
2023-02-28T19:49:44.824Z,5.88
2023-02-28T19:53:00.447Z,5.80
2023-02-28T19:56:25.223Z,5.80
2023-02-28T19:59:39.487Z,5.45
2023-02-28T20:02:45.314Z,6.53
2023-02-28T20:06:02.444Z,5.63
2023-02-28T20:09:12.690Z,5.28
2023-02-28T20:12:24.001Z,6.18
2023-02-28T20:15:30.243Z,6.10
2023-02-28T20:18:34.154Z,6.22
2023-02-28T20:21:37.956Z,5.85
2023-02-28T20:27:47.553Z,6.30
2023-02-28T20:30:59.781Z,8.00
2023-02-28T20:34:04.864Z,9.32
2023-02-28T20:37:09.001Z,8.82
2023-02-28T20:43:20.890Z,8.00
2023-02-28T20:46:25.926Z,8.40
2023-02-28T20:49:29.633Z,8.02
2023-02-28T20:52:33.574Z,8.32
2023-02-28T20:55:41.058Z,8.23
2023-02-28T20:58:47.731Z,6.70
2023-02-28T21:01:52.688Z,6.75
2023-02-28T21:04:56.270Z,7.70
2023-02-28T21:08:00.730Z,6.95
2023-02-28T21:11:10.238Z,6.90
2023-02-28T21:14:17.541Z,7.75
2023-02-28T21:17:21.730Z,7.65
2023-02-28T21:20:32.032Z,9.50
2023-02-28T21:23:36.090Z,8.38
2023-02-28T21:29:48.267Z,8.82
2023-02-28T21:32:51.758Z,7.55
2023-02-28T21:36:04.450Z,6.28
2023-02-28T21:39:14.686Z,6.60
2023-02-28T21:42:19.953Z,6.65
2023-02-28T21:45:25.104Z,6.28
2023-02-28T21:48:28.611Z,6.72
2023-02-28T21:51:33.567Z,6.65
2023-02-28T21:54:37.236Z,6.03
2023-02-28T21:57:44.420Z,6.93
2023-02-28T22:00:49.266Z,6.97
2023-02-28T22:03:54.602Z,6.88
2023-02-28T22:06:58.815Z,6.68
2023-02-28T22:10:02.614Z,7.40
2023-02-28T22:13:09.747Z,7.03
2023-02-28T22:16:16.747Z,7.20
2023-02-28T22:19:21.238Z,7.78
2023-02-28T22:22:26.443Z,7.63
2023-02-28T22:25:30.386Z,8.77
2023-02-28T22:28:36.116Z,8.57
2023-02-28T22:31:48.357Z,9.60
2023-02-28T22:34:54.169Z,12.30
2023-02-28T22:37:58.175Z,10.45
2023-02-28T22:44:08.602Z,11.02
2023-02-28T22:47:12.598Z,11.27
2023-02-28T22:50:17.967Z,9.85
2023-02-28T22:53:21.973Z,9.00
2023-02-28T22:56:30.111Z,9.70
2023-02-28T22:59:36.930Z,9.50
2023-02-28T23:02:41.574Z,9.43
2023-02-28T23:05:45.869Z,10.18
2023-02-28T23:08:50.034Z,10.35
2023-02-28T23:11:54.153Z,8.73
2023-02-28T23:14:59.206Z,9.65
2023-02-28T23:18:02.967Z,9.35
2023-02-28T23:21:08.638Z,9.95
2023-02-28T23:24:21.582Z,8.95
2023-02-28T23:27:25.675Z,10.70
2023-02-28T23:33:35.297Z,10.55
2023-02-28T23:36:40.071Z,10.27
2023-02-28T23:39:44.091Z,11.13
2023-02-28T23:42:47.963Z,11.00
2023-02-28T23:46:01.160Z,11.93
2023-02-28T23:49:07.466Z,14.13
2023-02-28T23:52:12.331Z,13.07
2023-02-28T23:55:16.619Z,12.60
2023-02-28T23:58:20.416Z,13.32
